Time;durP1;ratioP1;P1;durP2;ratioP2;P2;SDS_P1;SDS_P2;PMS_P1;PMS_P2;Temp;Humidity;BMP_temperature;BMP_pressure;BME280_temperature;BME280_humidity;BME280_pressure;Samples;Min_cycle;Max_cycle;Signal;HPM_P1;HPM_P2
2021/12/10 00:00:36;;;;;;;13.32;3.63;;;;;;;;;;5028560;28;20076;-53
2021/12/10 00:03:03;;;;;;;13.45;3.40;;;;;;;;;;5024623;28;20061;-53
2021/12/10 00:05:34;;;;;;;9.93;3.28;;;;;;;;;;5028499;28;20061;-50
2021/12/10 00:08:03;;;;;;;8.90;3.17;;;;;;;;;;5024622;28;20057;-52
2021/12/10 00:10:29;;;;;;;;;;;;;;;;;;5028595;28;20056;-52
2021/12/10 00:12:58;;;;;;;9.30;2.78;;;;;;;;;;5024651;28;19929;-51
2021/12/10 00:15:26;;;;;;;16.95;4.28;;;;;;;;;;5029352;28;20059;-51
2021/12/10 00:17:53;;;;;;;10.00;3.92;;;;;;;;;;5026153;28;20061;-52
2021/12/10 00:20:23;;;;;;;9.13;3.40;;;;;;;;;;5045995;28;20060;-55
2021/12/10 00:22:55;;;;;;;11.27;3.80;;;;;;;;;;5040728;28;20045;-54
2021/12/10 00:25:26;;;;;;;12.02;3.38;;;;;;;;;;5026795;28;20062;-56
2021/12/10 00:27:56;;;;;;;7.85;3.08;;;;;;;;;;5024126;28;20053;-50
2021/12/10 00:30:26;;;;;;;6.05;2.92;;;;;;;;;;5027670;28;20063;-54
2021/12/10 00:33:01;;;;;;;8.57;3.05;;;;;;;;;;5023764;28;20053;-50
2021/12/10 00:35:29;;;;;;;17.10;4.25;;;;;;;;;;5027577;28;20053;-52
2021/12/10 00:37:56;;;;;;;8.90;3.45;;;;;;;;;;5023621;28;20053;-54
2021/12/10 00:40:23;;;;;;;11.38;3.30;;;;;;;;;;5027238;28;20080;-54
2021/12/10 00:42:49;;;;;;;13.15;3.47;;;;;;;;;;5026898;28;20123;-54
2021/12/10 00:45:17;;;;;;;10.90;3.95;;;;;;;;;;5023390;28;20176;-55
2021/12/10 00:47:45;;;;;;;14.18;4.55;;;;;;;;;;5026916;28;20057;-55
2021/12/10 00:50:13;;;;;;;11.53;3.53;;;;;;;;;;5018171;28;20076;-55
2021/12/10 00:52:42;;;;;;;8.37;3.70;;;;;;;;;;5026284;28;20105;-53
2021/12/10 00:55:09;;;;;;;13.48;4.22;;;;;;;;;;5022430;28;20156;-54
2021/12/10 00:57:36;;;;;;;10.68;3.83;;;;;;;;;;5026306;28;20065;-57
2021/12/10 01:00:04;;;;;;;16.25;4.50;;;;;;;;;;5022471;28;20089;-56
2021/12/10 01:02:31;;;;;;;9.57;3.72;;;;;;;;;;5026471;28;20057;-54
2021/12/10 01:05:00;;;;;;;11.48;5.03;;;;;;;;;;5023034;28;20059;-56
2021/12/10 01:07:27;;;;;;;9.60;3.83;;;;;;;;;;5043513;28;20539;-56
2021/12/10 01:09:55;;;;;;;11.47;2.97;;;;;;;;;;5039079;28;20089;-52
2021/12/10 01:12:24;;;;;;;9.43;3.95;;;;;;;;;;5033143;28;20084;-53
2021/12/10 01:15:03;;;;;;;9.57;3.40;;;;;;;;;;5037247;28;20103;-52
2021/12/10 01:25:55;;;;;;;12.38;4.20;;;;;;;;;;5033406;28;20131;-50
2021/12/10 01:28:23;;;;;;;9.32;4.10;;;;;;;;;;5046768;28;20061;-51
2021/12/10 01:30:49;;;;;;;13.70;3.85;;;;;;;;;;5035733;28;20532;-54
2021/12/10 01:33:17;;;;;;;10.93;3.75;;;;;;;;;;5027234;28;20144;-50
2021/12/10 01:35:49;;;;;;;15.98;4.43;;;;;;;;;;5029326;28;20051;-51
2021/12/10 01:38:16;;;;;;;10.40;3.85;;;;;;;;;;5046870;28;20064;-51
2021/12/10 01:40:44;;;;;;;10.35;4.13;;;;;;;;;;5042900;28;20045;-56
2021/12/10 01:43:22;;;;;;;8.52;3.30;;;;;;;;;;5047415;28;20053;-55
2021/12/10 01:45:50;;;;;;;10.52;3.72;;;;;;;;;;5043202;28;20049;-53
2021/12/10 01:48:20;;;;;;;8.32;3.45;;;;;;;;;;5046663;28;20059;-52
2021/12/10 01:50:48;;;;;;;8.38;3.50;;;;;;;;;;5041632;28;20143;-54
2021/12/10 01:53:17;;;;;;;8.00;2.80;;;;;;;;;;5039260;28;20072;-52
2021/12/10 01:55:45;;;;;;;16.85;4.40;;;;;;;;;;5044199;28;20049;-52
2021/12/10 01:58:14;;;;;;;9.70;3.40;;;;;;;;;;5045083;28;20136;-53
2021/12/10 02:00:42;;;;;;;7.65;3.45;;;;;;;;;;5045861;28;20080;-54
2021/12/10 02:03:09;;;;;;;12.15;3.75;;;;;;;;;;5041594;28;20136;-52
2021/12/10 02:05:36;;;;;;;10.40;3.35;;;;;;;;;;5045647;28;20060;-54
2021/12/10 02:08:04;;;;;;;8.48;3.08;;;;;;;;;;5027055;28;20063;-52
2021/12/10 02:10:31;;;;;;;7.75;3.10;;;;;;;;;;5026137;28;20452;-52
2021/12/10 02:12:58;;;;;;;6.95;3.05;;;;;;;;;;5021837;28;20159;-53
2021/12/10 02:15:27;;;;;;;8.77;3.25;;;;;;;;;;5025973;28;20049;-50
2021/12/10 02:17:56;;;;;;;11.15;4.00;;;;;;;;;;5022425;28;20156;-55
2021/12/10 02:20:22;;;;;;;;;;;;;;;;;;5061607;28;20052;-52
2021/12/10 02:22:51;;;;;;;5.25;2.35;;;;;;;;;;5033456;28;19921;-55
2021/12/10 02:25:20;;;;;;;7.53;2.67;;;;;;;;;;5025892;28;20056;-52
2021/12/10 02:27:46;;;;;;;11.18;3.45;;;;;;;;;;5022448;28;20045;-55
2021/12/10 02:30:14;;;;;;;7.10;2.70;;;;;;;;;;5025998;28;20049;-52
2021/12/10 02:32:41;;;;;;;7.60;2.72;;;;;;;;;;5021628;28;20059;-55
2021/12/10 02:35:12;;;;;;;5.53;2.63;;;;;;;;;;5027926;28;20054;-53
2021/12/10 02:37:39;;;;;;;5.43;2.47;;;;;;;;;;5041912;28;20188;-53
2021/12/10 02:40:08;;;;;;;6.45;2.35;;;;;;;;;;5046155;28;20072;-52
2021/12/10 02:42:35;;;;;;;12.73;2.30;;;;;;;;;;5042185;28;20057;-55
2021/12/10 02:45:01;;;;;;;8.27;2.45;;;;;;;;;;5058921;28;20158;-54
2021/12/10 02:47:28;;;;;;;8.82;2.50;;;;;;;;;;5026896;28;20088;-55
2021/12/10 02:49:54;;;;;;;7.30;2.25;;;;;;;;;;5012256;28;20061;-53
2021/12/10 02:52:23;;;;;;;9.27;2.65;;;;;;;;;;5028834;28;20097;-55
2021/12/10 02:54:50;;;;;;;6.10;2.20;;;;;;;;;;5030558;28;20056;-53
2021/12/10 02:57:18;;;;;;;5.20;1.98;;;;;;;;;;5033513;28;20150;-52
2021/12/10 02:59:45;;;;;;;5.22;2.10;;;;;;;;;;5025599;28;20053;-51
2021/12/10 03:02:13;;;;;;;3.38;1.80;;;;;;;;;;5016752;28;20081;-56
2021/12/10 03:04:41;;;;;;;6.03;1.85;;;;;;;;;;5021189;28;20053;-51
2021/12/10 03:07:12;;;;;;;5.43;1.73;;;;;;;;;;5046869;28;20077;-52
2021/12/10 03:09:39;;;;;;;4.00;1.40;;;;;;;;;;5027370;28;20057;-51
2021/12/10 03:12:06;;;;;;;4.85;1.88;;;;;;;;;;5047080;28;20080;-53
2021/12/10 03:14:36;;;;;;;5.38;1.92;;;;;;;;;;5025964;28;20057;-54
2021/12/10 03:17:06;;;;;;;4.88;2.20;;;;;;;;;;5038147;28;20106;-55
2021/12/10 03:19:33;;;;;;;6.57;1.75;;;;;;;;;;5040783;28;20054;-55
2021/12/10 03:21:59;;;;;;;6.20;2.10;;;;;;;;;;5029866;28;20056;-55
2021/12/10 03:24:28;;;;;;;4.78;1.55;;;;;;;;;;5045054;28;20128;-54
2021/12/10 03:26:57;;;;;;;;;;;;;;;;;;5049065;28;20057;-53
2021/12/10 03:29:24;;;;;;;3.28;1.42;;;;;;;;;;5045104;28;19929;-55
2021/12/10 03:31:53;;;;;;;3.60;1.40;;;;;;;;;;5027812;28;20487;-54
2021/12/10 03:34:20;;;;;;;4.45;1.50;;;;;;;;;;5028037;28;20057;-53
2021/12/10 03:36:48;;;;;;;4.78;1.55;;;;;;;;;;5025211;28;20117;-53
2021/12/10 03:39:16;;;;;;;4.15;1.65;;;;;;;;;;5028403;28;20123;-56
2021/12/10 03:41:43;;;;;;;2.33;1.17;;;;;;;;;;5018227;28;20117;-53
2021/12/10 03:44:10;;;;;;;4.97;1.60;;;;;;;;;;5039458;28;20053;-55
2021/12/10 03:46:37;;;;;;;8.32;1.50;;;;;;;;;;5044421;28;20056;-55
2021/12/10 03:49:05;;;;;;;4.35;1.80;;;;;;;;;;5047940;28;20357;-55
2021/12/10 03:51:32;;;;;;;3.58;1.35;;;;;;;;;;5032679;28;20075;-55
2021/12/10 03:53:59;;;;;;;7.65;1.48;;;;;;;;;;5028372;28;20069;-53
2021/12/10 03:56:27;;;;;;;5.40;2.00;;;;;;;;;;5015111;28;20077;-55
2021/12/10 03:58:54;;;;;;;5.40;1.95;;;;;;;;;;5023028;28;20092;-52
2021/12/10 04:01:24;;;;;;;5.00;1.58;;;;;;;;;;5024204;28;20085;-52
2021/12/10 04:03:51;;;;;;;3.05;1.48;;;;;;;;;;5044954;28;20048;-55
2021/12/10 04:06:19;;;;;;;7.07;1.80;;;;;;;;;;5039596;28;20069;-54
2021/12/10 04:08:46;;;;;;;4.28;1.65;;;;;;;;;;5028373;28;20121;-53
2021/12/10 04:11:15;;;;;;;2.45;1.17;;;;;;;;;;5024135;28;20387;-52
2021/12/10 04:13:41;;;;;;;;;;;;;;;;;;5028037;28;20061;-52
2021/12/10 04:16:07;;;;;;;5.85;1.58;;;;;;;;;;5027926;28;19936;-55
2021/12/10 04:18:36;;;;;;;4.25;1.80;;;;;;;;;;5043067;28;20060;-54
2021/12/10 04:21:02;;;;;;;11.27;1.85;;;;;;;;;;5048244;28;20049;-51
2021/12/10 04:23:30;;;;;;;4.88;1.40;;;;;;;;;;5026496;28;20065;-51
2021/12/10 04:25:57;;;;;;;6.53;1.45;;;;;;;;;;5028131;28;20131;-52
2021/12/10 04:28:24;;;;;;;3.53;1.48;;;;;;;;;;5024133;28;20144;-53
2021/12/10 04:30:50;;;;;;;4.07;1.65;;;;;;;;;;5028301;28;20049;-55
2021/12/10 04:33:18;;;;;;;4.05;1.10;;;;;;;;;;5032989;28;20088;-51
2021/12/10 04:35:46;;;;;;;3.43;1.37;;;;;;;;;;5029166;28;20126;-52
2021/12/10 04:38:13;;;;;;;11.55;1.90;;;;;;;;;;5024760;28;20053;-53
2021/12/10 04:40:41;;;;;;;6.20;1.80;;;;;;;;;;5027778;28;20038;-53
2021/12/10 04:43:07;;;;;;;3.78;1.60;;;;;;;;;;5023579;28;20164;-54
2021/12/10 04:45:34;;;;;;;4.75;1.80;;;;;;;;;;5027170;28;20117;-54
2021/12/10 04:48:00;;;;;;;3.45;1.58;;;;;;;;;;5024063;28;20064;-53
2021/12/10 04:50:28;;;;;;;7.95;1.50;;;;;;;;;;5026575;28;20152;-53
2021/12/10 04:52:54;;;;;;;4.72;1.63;;;;;;;;;;5023102;28;20069;-52
2021/12/10 04:55:22;;;;;;;4.95;1.70;;;;;;;;;;5026837;28;20050;-55
2021/12/10 04:57:49;;;;;;;4.75;1.52;;;;;;;;;;5024839;28;20068;-56
2021/12/10 05:00:18;;;;;;;7.80;2.30;;;;;;;;;;5025063;28;20057;-53
2021/12/10 05:02:44;;;;;;;4.15;1.80;;;;;;;;;;5026076;28;20302;-57
2021/12/10 05:05:12;;;;;;;5.18;1.30;;;;;;;;;;5022641;28;20057;-56
2021/12/10 05:07:38;;;;;;;7.18;1.38;;;;;;;;;;5026465;28;20053;-53
2021/12/10 05:10:05;;;;;;;5.05;1.52;;;;;;;;;;5022316;28;20069;-55
2021/12/10 05:12:32;;;;;;;6.10;1.52;;;;;;;;;;5033585;28;20057;-54
2021/12/10 05:15:06;;;;;;;5.88;1.42;;;;;;;;;;5047340;28;20156;-55
2021/12/10 05:17:34;;;;;;;2.80;1.20;;;;;;;;;;5027256;28;20312;-54
2021/12/10 05:20:01;;;;;;;6.65;1.65;;;;;;;;;;5022849;28;20061;-55
2021/12/10 05:22:28;;;;;;;4.68;1.50;;;;;;;;;;5026773;28;20065;-49
2021/12/10 05:24:55;;;;;;;6.50;1.67;;;;;;;;;;5022578;28;20079;-51
2021/12/10 05:27:22;;;;;;;2.53;1.07;;;;;;;;;;5043360;28;20081;-53
2021/12/10 05:29:48;;;;;;;4.22;1.67;;;;;;;;;;5039574;28;20394;-53
2021/12/10 05:32:17;;;;;;;7.57;1.70;;;;;;;;;;5025972;28;20068;-55
2021/12/10 05:34:44;;;;;;;5.35;1.55;;;;;;;;;;5022043;28;20052;-52
2021/12/10 05:37:11;;;;;;;7.07;1.92;;;;;;;;;;5042022;28;20057;-53
2021/12/10 05:39:37;;;;;;;7.57;1.35;;;;;;;;;;5022767;28;20061;-55
2021/12/10 05:42:04;;;;;;;5.40;1.60;;;;;;;;;;5026537;28;20049;-49
2021/12/10 05:44:31;;;;;;;5.78;1.50;;;;;;;;;;5026310;28;20061;-53
2021/12/10 05:46:58;;;;;;;3.88;1.40;;;;;;;;;;5022469;28;20065;-52
2021/12/10 05:49:26;;;;;;;2.17;1.00;;;;;;;;;;5042664;28;20144;-55
2021/12/10 05:51:52;;;;;;;6.23;1.40;;;;;;;;;;5038991;28;20081;-51
2021/12/10 05:54:22;;;;;;;6.32;2.13;;;;;;;;;;5043240;28;20128;-49
2021/12/10 05:56:49;;;;;;;5.72;1.50;;;;;;;;;;5040495;28;20120;-51
2021/12/10 05:59:16;;;;;;;10.00;1.85;;;;;;;;;;5026397;28;20073;-54
2021/12/10 06:01:42;;;;;;;3.58;1.58;;;;;;;;;;5023608;28;20045;-52
2021/12/10 06:04:11;;;;;;;5.90;1.20;;;;;;;;;;5028344;28;20050;-49
2021/12/10 06:06:39;;;;;;;9.07;1.50;;;;;;;;;;5022848;28;20057;-50
2021/12/10 06:09:07;;;;;;;3.50;1.52;;;;;;;;;;5027186;28;20050;-48
2021/12/10 06:11:34;;;;;;;5.35;1.17;;;;;;;;;;5024554;28;20119;-52
2021/12/10 06:14:01;;;;;;;5.85;1.50;;;;;;;;;;5029091;28;20140;-51
2021/12/10 06:16:27;;;;;;;3.17;1.05;;;;;;;;;;5023571;28;20152;-53
2021/12/10 06:18:54;;;;;;;1.08;0.70;;;;;;;;;;5026638;28;20053;-54
2021/12/10 06:21:21;;;;;;;4.70;1.33;;;;;;;;;;5024291;28;20053;-52
2021/12/10 06:23:49;;;;;;;5.80;1.65;;;;;;;;;;5031046;28;20089;-51
2021/12/10 06:26:16;;;;;;;4.83;1.57;;;;;;;;;;5030280;28;20081;-54
2021/12/10 06:28:44;;;;;;;13.00;1.58;;;;;;;;;;5039630;28;20060;-52
2021/12/10 06:31:11;;;;;;;13.98;3.17;;;;;;;;;;5030197;28;20057;-56
2021/12/10 06:33:38;;;;;;;1.17;0.70;;;;;;;;;;5027668;28;20073;-53
2021/12/10 06:36:07;;;;;;;4.20;1.60;;;;;;;;;;5031559;28;20077;-51
2021/12/10 06:38:34;;;;;;;7.55;1.52;;;;;;;;;;5026018;28;20140;-52
2021/12/10 06:41:02;;;;;;;8.98;1.35;;;;;;;;;;5029672;28;20049;-54
2021/12/10 06:43:29;;;;;;;4.93;1.48;;;;;;;;;;5028716;28;20049;-54
2021/12/10 06:45:57;;;;;;;5.07;1.40;;;;;;;;;;5011564;28;20060;-50
2021/12/10 06:48:25;;;;;;;4.60;1.77;;;;;;;;;;5007395;28;20061;-51
2021/12/10 06:50:53;;;;;;;5.97;1.23;;;;;;;;;;5010670;28;20046;-55
2021/12/10 06:53:21;;;;;;;5.82;1.52;;;;;;;;;;5007433;28;20077;-53
2021/12/10 06:55:49;;;;;;;8.00;1.55;;;;;;;;;;5009924;28;20057;-54
2021/12/10 06:58:18;;;;;;;4.20;0.88;;;;;;;;;;5007404;28;20082;-51
2021/12/10 07:00:46;;;;;;;3.20;1.15;;;;;;;;;;4984564;28;20058;-54
2021/12/10 07:03:14;;;;;;;5.13;0.95;;;;;;;;;;4985638;28;20121;-52
2021/12/10 07:05:47;;;;;;;4.80;1.42;;;;;;;;;;4990240;28;20077;-56
2021/12/10 07:08:14;;;;;;;4.82;1.10;;;;;;;;;;4987757;28;20062;-52
2021/12/10 07:10:41;;;;;;;6.55;1.42;;;;;;;;;;4990092;28;20093;-50
2021/12/10 07:13:07;;;;;;;2.65;1.20;;;;;;;;;;4997205;28;20125;-52
2021/12/10 07:15:38;;;;;;;6.38;1.30;;;;;;;;;;4989450;28;20066;-53
2021/12/10 07:18:04;;;;;;;2.55;0.90;;;;;;;;;;4990129;28;20093;-53
2021/12/10 07:20:31;;;;;;;5.65;1.45;;;;;;;;;;4985977;28;20062;-55
2021/12/10 07:22:57;;;;;;;5.85;1.60;;;;;;;;;;4990231;28;20234;-54
2021/12/10 07:25:24;;;;;;;4.55;1.40;;;;;;;;;;4987378;28;20081;-53
2021/12/10 07:27:52;;;;;;;3.25;1.10;;;;;;;;;;4990255;28;20064;-52
2021/12/10 07:30:19;;;;;;;8.27;1.25;;;;;;;;;;4985550;28;20050;-52
2021/12/10 07:32:47;;;;;;;6.30;1.00;;;;;;;;;;4988458;28;20077;-54
2021/12/10 07:35:16;;;;;;;7.63;1.80;;;;;;;;;;4985519;28;20061;-54
2021/12/10 07:37:43;;;;;;;3.85;1.13;;;;;;;;;;4988704;28;20066;-54
2021/12/10 07:40:11;;;;;;;1.75;1.10;;;;;;;;;;4985422;28;20082;-55
2021/12/10 07:42:38;;;;;;;2.75;1.05;;;;;;;;;;4988716;28;20058;-53
2021/12/10 07:45:06;;;;;;;7.75;1.50;;;;;;;;;;4990970;28;20054;-52
2021/12/10 07:47:35;;;;;;;4.10;1.77;;;;;;;;;;4988857;28;20141;-54
2021/12/10 07:50:04;;;;;;;2.42;1.02;;;;;;;;;;4989278;28;20136;-53
2021/12/10 07:52:34;;;;;;;3.13;1.10;;;;;;;;;;5007899;28;20132;-51
2021/12/10 07:55:01;;;;;;;1.98;0.70;;;;;;;;;;5004502;28;20074;-54
2021/12/10 07:57:29;;;;;;;6.00;1.17;;;;;;;;;;5008357;28;20169;-51
2021/12/10 07:59:55;;;;;;;3.88;1.38;;;;;;;;;;5004373;28;20058;-57
2021/12/10 08:02:22;;;;;;;2.90;0.90;;;;;;;;;;5006893;28;20046;-55
2021/12/10 08:04:50;;;;;;;3.95;1.08;;;;;;;;;;5008356;28;20129;-53
2021/12/10 08:07:18;;;;;;;4.70;1.40;;;;;;;;;;4986638;28;20054;-51
2021/12/10 08:09:45;;;;;;;3.35;1.05;;;;;;;;;;4988347;28;20112;-52
2021/12/10 08:12:12;;;;;;;6.18;1.85;;;;;;;;;;4985059;28;20053;-53
2021/12/10 08:14:39;;;;;;;4.20;1.17;;;;;;;;;;5004958;28;20131;-53
2021/12/10 08:17:05;;;;;;;4.47;1.30;;;;;;;;;;5014217;28;20057;-53
2021/12/10 08:19:32;;;;;;;2.33;1.20;;;;;;;;;;5007639;28;20050;-53
2021/12/10 08:21:59;;;;;;;7.90;1.35;;;;;;;;;;5003451;28;20172;-52
2021/12/10 08:24:27;;;;;;;1.40;0.63;;;;;;;;;;5007961;28;20065;-55
2021/12/10 08:26:54;;;;;;;5.00;1.40;;;;;;;;;;5002732;28;20081;-52
2021/12/10 08:29:21;;;;;;;2.60;1.00;;;;;;;;;;5007747;28;20058;-54
2021/12/10 08:31:48;;;;;;;7.43;1.45;;;;;;;;;;4990394;28;20070;-53
2021/12/10 08:34:15;;;;;;;6.07;1.40;;;;;;;;;;4998450;28;20054;-53
2021/12/10 08:36:42;;;;;;;3.78;1.30;;;;;;;;;;5003257;28;20133;-53
2021/12/10 08:39:10;;;;;;;4.32;1.15;;;;;;;;;;5008224;28;20061;-54
2021/12/10 08:41:38;;;;;;;15.45;1.90;;;;;;;;;;4998191;28;20093;-56
2021/12/10 08:44:05;;;;;;;4.40;1.35;;;;;;;;;;5008047;28;20085;-53
2021/12/10 08:46:32;;;;;;;5.80;1.27;;;;;;;;;;5007462;28;20058;-51
2021/12/10 08:48:59;;;;;;;4.25;1.30;;;;;;;;;;4987470;28;20042;-54
2021/12/10 08:51:27;;;;;;;3.53;1.40;;;;;;;;;;4989589;28;20054;-55
2021/12/10 08:53:55;;;;;;;;;;;;;;;;;;4984678;28;20058;-53
2021/12/10 08:56:23;;;;;;;5.30;1.60;;;;;;;;;;4987954;28;19931;-53
2021/12/10 08:58:51;;;;;;;3.60;1.08;;;;;;;;;;5000028;28;20054;-52
2021/12/10 09:01:20;;;;;;;3.53;0.95;;;;;;;;;;5000037;28;20053;-53
2021/12/10 09:03:49;;;;;;;4.00;1.30;;;;;;;;;;5019058;28;20081;-55
2021/12/10 09:06:16;;;;;;;3.13;1.08;;;;;;;;;;5027105;28;20053;-55
2021/12/10 09:08:42;;;;;;;9.10;1.92;;;;;;;;;;5005391;28;20137;-53
2021/12/10 09:11:09;;;;;;;3.03;1.02;;;;;;;;;;5007009;28;20524;-55
2021/12/10 09:13:37;;;;;;;3.85;1.52;;;;;;;;;;5010274;28;20053;-56
2021/12/10 09:16:07;;;;;;;7.28;1.75;;;;;;;;;;5026692;28;20130;-53
2021/12/10 09:18:38;;;;;;;6.45;0.98;;;;;;;;;;5036914;28;20073;-57
2021/12/10 09:21:06;;;;;;;4.22;1.45;;;;;;;;;;5043493;28;20096;-57
2021/12/10 09:23:32;;;;;;;5.77;1.40;;;;;;;;;;5019258;28;20202;-55
2021/12/10 09:26:01;;;;;;;3.95;1.48;;;;;;;;;;5006704;28;20068;-53
2021/12/10 09:28:28;;;;;;;5.88;1.20;;;;;;;;;;5004182;28;20132;-54
2021/12/10 09:30:56;;;;;;;6.85;1.60;;;;;;;;;;5026518;28;20121;-55
2021/12/10 09:33:24;;;;;;;12.52;1.80;;;;;;;;;;5043062;28;20076;-52
2021/12/10 09:35:50;;;;;;;7.80;2.13;;;;;;;;;;5038469;28;20057;-51
2021/12/10 09:38:19;;;;;;;6.53;1.35;;;;;;;;;;5026536;28;20139;-56
2021/12/10 09:40:47;;;;;;;3.13;1.13;;;;;;;;;;5005949;28;20061;-52
2021/12/10 09:43:15;;;;;;;3.13;1.25;;;;;;;;;;5010174;28;20136;-55
2021/12/10 09:45:44;;;;;;;4.97;1.48;;;;;;;;;;5025947;28;20063;-54
2021/12/10 09:48:12;;;;;;;3.90;1.40;;;;;;;;;;5045705;28;20057;-55
2021/12/10 09:50:40;;;;;;;6.47;1.55;;;;;;;;;;5029534;28;20080;-55
2021/12/10 09:53:07;;;;;;;5.90;2.10;;;;;;;;;;5025923;28;20049;-56
2021/12/10 09:55:34;;;;;;;7.35;1.67;;;;;;;;;;5032566;28;20103;-53
2021/12/10 09:58:01;;;;;;;4.45;1.45;;;;;;;;;;5045826;28;20077;-54
2021/12/10 10:00:30;;;;;;;9.07;1.33;;;;;;;;;;5033925;28;20141;-52
2021/12/10 10:02:57;;;;;;;3.17;1.23;;;;;;;;;;5025964;28;20068;-52
2021/12/10 10:05:27;;;;;;;9.75;1.30;;;;;;;;;;5039165;28;20046;-53
2021/12/10 10:07:55;;;;;;;6.18;1.27;;;;;;;;;;5026441;28;20053;-55
2021/12/10 10:10:23;;;;;;;8.00;1.65;;;;;;;;;;5039824;28;20075;-54
2021/12/10 10:12:51;;;;;;;3.93;1.53;;;;;;;;;;5036576;28;20056;-52
2021/12/10 10:15:19;;;;;;;5.13;1.30;;;;;;;;;;5042019;28;20369;-56
2021/12/10 10:17:46;;;;;;;5.35;1.60;;;;;;;;;;5026694;28;20046;-52
2021/12/10 10:20:14;;;;;;;3.78;1.40;;;;;;;;;;5025527;28;20135;-55
2021/12/10 10:22:40;;;;;;;4.63;1.30;;;;;;;;;;5033953;28;20143;-55
2021/12/10 10:25:11;;;;;;;2.60;1.10;;;;;;;;;;5046137;28;20482;-54
2021/12/10 10:27:38;;;;;;;6.18;1.25;;;;;;;;;;5025026;28;20062;-52
2021/12/10 10:30:08;;;;;;;10.18;1.42;;;;;;;;;;5026018;28;20053;-55
2021/12/10 10:32:35;;;;;;;6.60;1.25;;;;;;;;;;5018717;28;20081;-56
2021/12/10 10:35:05;;;;;;;4.28;1.20;;;;;;;;;;5025840;28;20046;-54
2021/12/10 10:37:32;;;;;;;4.40;0.95;;;;;;;;;;5021595;28;20049;-56
2021/12/10 10:39:59;;;;;;;3.92;1.42;;;;;;;;;;5023837;28;20132;-51
2021/12/10 10:42:29;;;;;;;7.75;1.50;;;;;;;;;;5012942;28;20080;-55
2021/12/10 10:44:58;;;;;;;5.30;1.90;;;;;;;;;;5040758;28;20151;-53
2021/12/10 10:47:26;;;;;;;4.13;1.50;;;;;;;;;;5032657;28;20081;-53
2021/12/10 10:49:54;;;;;;;3.00;1.05;;;;;;;;;;5026276;28;20058;-55
2021/12/10 10:52:24;;;;;;;3.30;0.98;;;;;;;;;;5039585;28;20057;-51
2021/12/10 10:54:54;;;;;;;4.55;1.10;;;;;;;;;;5025665;28;20198;-51
2021/12/10 10:57:24;;;;;;;6.03;1.40;;;;;;;;;;5021491;28;20057;-56
2021/12/10 10:59:56;;;;;;;3.42;1.00;;;;;;;;;;5035265;28;20127;-52
2021/12/10 11:02:24;;;;;;;1.15;0.70;;;;;;;;;;4999787;28;20058;-51
2021/12/10 11:04:52;;;;;;;5.97;1.45;;;;;;;;;;5004337;28;20131;-55
2021/12/10 11:07:20;;;;;;;2.28;1.10;;;;;;;;;;5002298;28;20054;-53
2021/12/10 11:09:48;;;;;;;3.92;1.65;;;;;;;;;;5009022;28;20136;-51
2021/12/10 11:12:17;;;;;;;4.18;1.40;;;;;;;;;;5009298;28;20045;-54
2021/12/10 11:14:48;;;;;;;3.83;1.10;;;;;;;;;;5004689;28;20049;-50
2021/12/10 11:17:17;;;;;;;2.90;1.02;;;;;;;;;;5008944;28;20129;-56
2021/12/10 11:19:48;;;;;;;8.60;1.50;;;;;;;;;;5005236;28;20077;-53
2021/12/10 11:22:16;;;;;;;4.20;1.00;;;;;;;;;;5008994;28;20109;-54
2021/12/10 11:24:45;;;;;;;3.50;1.20;;;;;;;;;;5005210;28;20184;-53
2021/12/10 11:27:20;;;;;;;1.92;0.85;;;;;;;;;;5009393;28;20300;-55
2021/12/10 11:29:48;;;;;;;3.65;1.13;;;;;;;;;;5004841;28;20131;-52
2021/12/10 11:32:17;;;;;;;2.42;1.00;;;;;;;;;;5009023;28;20045;-52
2021/12/10 11:34:45;;;;;;;;;;;;;;;;;;5005878;28;20140;-51
2021/12/10 11:37:12;;;;;;;3.13;0.90;;;;;;;;;;5009786;28;19925;-51
2021/12/10 11:39:42;;;;;;;3.42;1.13;;;;;;;;;;5006249;28;20076;-52
2021/12/10 11:42:28;;;;;;;10.50;2.00;;;;;;;;;;5010192;28;20515;-50
2021/12/10 11:45:17;;;;;;;6.07;1.02;;;;;;;;;;5005522;28;20090;-55
2021/12/10 11:47:45;;;;;;;6.03;1.08;;;;;;;;;;5008322;28;20050;-54
2021/12/10 11:50:20;;;;;;;3.30;1.20;;;;;;;;;;5005359;28;20147;-54
2021/12/10 11:52:59;;;;;;;3.78;0.77;;;;;;;;;;5008124;28;20053;-55
2021/12/10 11:55:35;;;;;;;;;;;;;;;;;;5004865;28;20140;-51
2021/12/10 11:58:04;;;;;;;1.23;0.63;;;;;;;;;;4988981;28;19932;-56
2021/12/10 12:00:30;;;;;;;;;;;;;;;;;;5004605;28;20050;-55
2021/12/10 12:02:59;;;;;;;2.95;0.93;;;;;;;;;;5008153;28;19925;-57
2021/12/10 12:05:28;;;;;;;6.43;1.33;;;;;;;;;;5004668;28;20133;-56
2021/12/10 12:07:57;;;;;;;5.28;1.30;;;;;;;;;;5008113;28;20068;-57
2021/12/10 12:10:26;;;;;;;3.83;0.93;;;;;;;;;;5004196;28;20053;-55
2021/12/10 12:12:54;;;;;;;3.58;1.05;;;;;;;;;;5007617;28;20050;-53
2021/12/10 12:15:24;;;;;;;3.42;1.10;;;;;;;;;;5004072;28;20077;-56
2021/12/10 12:17:51;;;;;;;9.82;1.33;;;;;;;;;;5007850;28;20057;-53
2021/12/10 12:20:29;;;;;;;3.27;1.17;;;;;;;;;;4987684;28;20937;-57
2021/12/10 12:25:41;;;;;;;2.70;0.85;;;;;;;;;;5003674;28;20060;-53
2021/12/10 12:28:08;;;;;;;7.70;1.50;;;;;;;;;;5007139;28;20053;-51
2021/12/10 12:30:49;;;;;;;3.10;1.10;;;;;;;;;;5003798;28;20054;-55
2021/12/10 12:33:15;;;;;;;4.82;1.02;;;;;;;;;;5007446;28;20145;-56
2021/12/10 12:35:46;;;;;;;5.90;1.35;;;;;;;;;;5004833;28;20263;-55
2021/12/10 12:38:15;;;;;;;3.28;0.90;;;;;;;;;;5007812;28;20058;-54
2021/12/10 12:40:42;;;;;;;5.07;1.10;;;;;;;;;;5007012;28;20103;-53
2021/12/10 12:43:09;;;;;;;5.28;1.10;;;;;;;;;;5004415;28;20140;-51
2021/12/10 12:45:39;;;;;;;1.13;0.60;;;;;;;;;;5008374;28;20061;-54
2021/12/10 12:48:08;;;;;;;3.08;1.05;;;;;;;;;;5003581;28;20132;-53
2021/12/10 12:50:36;;;;;;;4.63;1.02;;;;;;;;;;5007006;28;20169;-55
2021/12/10 12:53:06;;;;;;;7.55;1.83;;;;;;;;;;5003483;28;20085;-50
2021/12/10 12:55:35;;;;;;;6.22;1.58;;;;;;;;;;5023360;28;20085;-52
2021/12/10 12:58:06;;;;;;;2.47;1.10;;;;;;;;;;5002955;28;20061;-55
2021/12/10 13:00:39;;;;;;;7.53;1.58;;;;;;;;;;5007395;28;20060;-55
2021/12/10 13:03:07;;;;;;;7.00;1.40;;;;;;;;;;5004094;28;20049;-53
2021/12/10 13:05:37;;;;;;;4.97;1.30;;;;;;;;;;5009025;28;20052;-56
2021/12/10 13:08:07;;;;;;;4.43;1.15;;;;;;;;;;5006584;28;20056;-52
2021/12/10 13:10:37;;;;;;;7.13;1.10;;;;;;;;;;5025746;28;20115;-54
2021/12/10 13:13:11;;;;;;;3.38;1.00;;;;;;;;;;5027018;28;20049;-53
2021/12/10 13:15:39;;;;;;;9.25;1.90;;;;;;;;;;5046676;28;20120;-51
2021/12/10 13:18:08;;;;;;;5.32;1.17;;;;;;;;;;5035952;28;20053;-52
2021/12/10 13:20:36;;;;;;;3.17;1.10;;;;;;;;;;5026364;28;20060;-53
2021/12/10 13:23:04;;;;;;;5.45;1.60;;;;;;;;;;5027833;28;20053;-56
2021/12/10 13:25:33;;;;;;;3.22;1.25;;;;;;;;;;5046413;28;20061;-57
2021/12/10 13:28:02;;;;;;;3.08;1.13;;;;;;;;;;5038918;28;20526;-56
2021/12/10 13:30:29;;;;;;;7.15;1.63;;;;;;;;;;5025815;28;20053;-58
2021/12/10 13:32:57;;;;;;;8.15;1.63;;;;;;;;;;5031073;28;20073;-53
2021/12/10 13:35:25;;;;;;;2.75;1.05;;;;;;;;;;5032173;28;20064;-53
2021/12/10 13:37:52;;;;;;;3.67;1.47;;;;;;;;;;5046413;28;20056;-55
2021/12/10 13:40:18;;;;;;;2.95;1.23;;;;;;;;;;5037656;28;20057;-51
2021/12/10 13:42:46;;;;;;;3.15;1.33;;;;;;;;;;5045590;28;20577;-55
2021/12/10 13:45:17;;;;;;;6.25;1.40;;;;;;;;;;5041076;28;20084;-52
2021/12/10 13:47:50;;;;;;;4.38;1.40;;;;;;;;;;5045917;28;20114;-55
2021/12/10 13:50:18;;;;;;;3.13;1.20;;;;;;;;;;5041475;28;20133;-54
2021/12/10 13:52:45;;;;;;;2.87;1.03;;;;;;;;;;5046071;28;20052;-52
2021/12/10 13:55:18;;;;;;;2.60;1.00;;;;;;;;;;5041545;28;20144;-54
2021/12/10 13:58:06;;;;;;;5.93;1.33;;;;;;;;;;5046343;28;20053;-52
2021/12/10 14:00:33;;;;;;;2.00;0.83;;;;;;;;;;5027647;28;20063;-55
2021/12/10 14:02:59;;;;;;;5.55;1.33;;;;;;;;;;5026393;28;20296;-52
2021/12/10 14:05:28;;;;;;;5.85;1.70;;;;;;;;;;5022249;28;20054;-53
2021/12/10 14:08:04;;;;;;;3.17;1.30;;;;;;;;;;5042407;28;20160;-50
2021/12/10 14:10:32;;;;;;;10.98;1.65;;;;;;;;;;5022359;28;20050;-54
2021/12/10 14:13:01;;;;;;;4.93;0.93;;;;;;;;;;5025627;28;20042;-53
2021/12/10 14:15:35;;;;;;;3.50;1.05;;;;;;;;;;5022078;28;20053;-55
2021/12/10 14:18:04;;;;;;;4.32;1.30;;;;;;;;;;5025862;28;20115;-54
2021/12/10 14:20:33;;;;;;;6.90;1.70;;;;;;;;;;5021902;28;20124;-53
2021/12/10 14:23:01;;;;;;;4.72;1.15;;;;;;;;;;5024727;28;20057;-50
2021/12/10 14:25:32;;;;;;;3.60;1.30;;;;;;;;;;5020233;28;20052;-55
2021/12/10 14:28:02;;;;;;;5.47;1.38;;;;;;;;;;5006620;28;20050;-56
2021/12/10 14:30:32;;;;;;;3.00;1.00;;;;;;;;;;5019329;28;20050;-57
2021/12/10 14:33:00;;;;;;;7.43;1.40;;;;;;;;;;5007847;28;20399;-54
2021/12/10 14:35:27;;;;;;;5.68;1.30;;;;;;;;;;5003661;28;20077;-55
2021/12/10 14:37:56;;;;;;;6.38;1.70;;;;;;;;;;5006697;28;20169;-55
2021/12/10 14:40:25;;;;;;;6.40;1.33;;;;;;;;;;5006985;28;20081;-57
2021/12/10 14:43:13;;;;;;;5.95;1.27;;;;;;;;;;5021039;28;20081;-55
2021/12/10 14:45:57;;;;;;;3.20;1.30;;;;;;;;;;5007177;28;20078;-57
2021/12/10 14:48:24;;;;;;;8.02;1.60;;;;;;;;;;5008207;28;20092;-56
2021/12/10 14:50:57;;;;;;;4.72;1.20;;;;;;;;;;5007647;28;20132;-57
2021/12/10 14:53:26;;;;;;;4.95;1.45;;;;;;;;;;4989660;28;20065;-57
2021/12/10 14:55:54;;;;;;;5.47;1.50;;;;;;;;;;5006006;28;20054;-57
2021/12/10 14:58:22;;;;;;;8.73;1.55;;;;;;;;;;5021259;28;20133;-52
2021/12/10 15:00:49;;;;;;;10.48;1.95;;;;;;;;;;5008925;28;20046;-57